Map

Track Data

SID SEASON NUMBER BASIN SUBBASIN NAME ISO_TIME NATURE LAT LON WMO_WIND WMO_PRES WMO_AGENCY TRACK_TYPE DIST2LAND LANDFALL IFLAG USA_AGENCY USA_ATCF_ID USA_LAT USA_LON USA_RECORD USA_STATUS USA_WIND USA_PRES USA_SSHS USA_R34_NE USA_R34_SE USA_R34_SW USA_R34_NW USA_R50_NE USA_R50_SE USA_R50_SW USA_R50_NW USA_R64_NE USA_R64_SE USA_R64_SW USA_R64_NW USA_POCI USA_ROCI USA_RMW USA_EYE TOKYO_LAT TOKYO_LON TOKYO_GRADE TOKYO_WIND TOKYO_PRES TOKYO_R50_DIR TOKYO_R50_LONG TOKYO_R50_SHORT TOKYO_R30_DIR TOKYO_R30_LONG TOKYO_R30_SHORT TOKYO_LAND CMA_LAT CMA_LON CMA_CAT CMA_WIND CMA_PRES HKO_LAT HKO_LON HKO_CAT HKO_WIND HKO_PRES NEWDELHI_LAT NEWDELHI_LON NEWDELHI_GRADE NEWDELHI_WIND NEWDELHI_PRES NEWDELHI_CI NEWDELHI_DP NEWDELHI_POCI REUNION_LAT REUNION_LON REUNION_TYPE REUNION_WIND REUNION_PRES REUNION_TNUM REUNION_CI REUNION_RMW REUNION_R34_NE REUNION_R34_SE REUNION_R34_SW REUNION_R34_NW REUNION_R50_NE REUNION_R50_SE REUNION_R50_SW REUNION_R50_NW REUNION_R64_NE REUNION_R64_SE REUNION_R64_SW REUNION_R64_NW BOM_LAT BOM_LON BOM_TYPE BOM_WIND BOM_PRES BOM_TNUM BOM_CI BOM_RMW BOM_R34_NE BOM_R34_SE BOM_R34_SW BOM_R34_NW BOM_R50_NE BOM_R50_SE BOM_R50_SW BOM_R50_NW BOM_R64_NE BOM_R64_SE BOM_R64_SW BOM_R64_NW BOM_ROCI BOM_POCI BOM_EYE BOM_POS_METHOD BOM_PRES_METHOD NADI_LAT NADI_LON NADI_CAT NADI_WIND NADI_PRES WELLINGTON_LAT WELLINGTON_LON WELLINGTON_WIND WELLINGTON_PRES DS824_LAT DS824_LON DS824_STAGE DS824_WIND DS824_PRES TD9636_LAT TD9636_LON TD9636_STAGE TD9636_WIND TD9636_PRES TD9635_LAT TD9635_LON TD9635_WIND TD9635_PRES TD9635_ROCI NEUMANN_LAT NEUMANN_LON NEUMANN_CLASS NEUMANN_WIND NEUMANN_PRES MLC_LAT MLC_LON MLC_CLASS MLC_WIND MLC_PRES USA_GUST BOM_GUST BOM_GUST_PER REUNION_GUST REUNION_GUST_PER USA_SEAHGT USA_SEARAD_NE USA_SEARAD_SE USA_SEARAD_SW USA_SEARAD_NW STORM_SPEED STORM_DIR
1969098S11156 1969 24 SP EA NOT_NAMED 1969-04-08 11:00:00 NR -11.3000 156.000 1007 bom main 360 360 ______O___O___ -1 -11.3000 156.000 1007 -11.3000 156.000 1 10 1 0
1969098S11156 1969 24 SP EA NOT_NAMED 1969-04-08 12:00:00 TS -11.2932 155.985 main 360 360 O_____P__OP___ jtwc_sh SH331969 -11.3000 156.000 10 -1 -11.2918 155.969 1006 -11.3000 156.000 TC 15 1007 -11.2844 155.977 1 10 2 295
1969098S11156 1969 24 SP EA NOT_NAMED 1969-04-08 15:00:00 TS -11.2475 155.889 main 354 354 P_____P__PP___ SH331969 -11.2500 155.887 12 -1 -11.2527 155.873 1005 -11.2500 155.887 TC 17 1006 -11.2373 155.908 1 11 2 299
1969098S11156 1969 24 SP EA NOT_NAMED 1969-04-08 17:00:00 TS -11.2100 155.827 1005 bom main 359 359 P_____O__PP___ SH331969 -11.2167 155.825 14 -1 -11.2000 155.800 1005 -11.2167 155.825 TC 19 1005 -11.2050 155.860 1 12 2 303
1969098S11156 1969 24 SP EA NOT_NAMED 1969-04-08 18:00:00 TS -11.1903 155.799 main 359 359 O_____P__OP___ jtwc_sh SH331969 -11.2000 155.800 15 -1 -11.1631 155.761 1005 -11.2000 155.800 TC 20 1005 -11.1885 155.835 1 12 2 312
1969098S11156 1969 24 SP EA NOT_NAMED 1969-04-08 20:00:00 TS -11.1509 155.755 1005 bom main 359 349 P_____O__PP___ SH331969 -11.1667 155.764 15 -1 -11.1000 155.700 1005 -11.1667 155.764 TC 18 1005 -11.1544 155.784 1 13 2 313
1969098S11156 1969 24 SP EA NOT_NAMED 1969-04-08 21:00:00 TS -11.1368 155.741 main 354 354 P_____P__PP___ SH331969 -11.1500 155.750 15 -1 -11.0975 155.698 1005 -11.1500 155.750 TC 17 1005 -11.1367 155.757 1 14 1 317
1969098S11156 1969 24 SP EA NOT_NAMED 1969-04-08 23:00:00 TS -11.1100 155.712 1006 bom main 354 354 P_____O__PO___ SH331969 -11.1167 155.720 15 -1 -11.1000 155.700 1006 -11.1167 155.720 TC 15 1005 -11.1000 155.700 1 15 1 313
1969098S11156 1969 24 SP EA NOT_NAMED 1969-04-09 00:00:00 TS -11.0900 155.689 main 354 354 O_____P__OP___ jtwc_sh SH331969 -11.1000 155.700 15 -1 -11.0691 155.675 1005 -11.1000 155.700 TC 15 1006 -11.0809 155.670 1 14 2 306
1969098S11156 1969 24 SP EA NOT_NAMED 1969-04-09 02:00:00 TS -11.0484 155.626 1005 bom main 349 349 P_____O__PP___ SH331969 -11.0667 155.641 13 -1 -11.0000 155.600 1005 -11.0667 155.641 TC 16 1005 -11.0419 155.607 1 12 2 301
1969098S11156 1969 24 SP EA NOT_NAMED 1969-04-09 03:00:00 TS -11.0329 155.593 main 349 349 P_____P__PP___ SH331969 -11.0500 155.607 12 -1 -10.9921 155.567 1004 -11.0500 155.607 TC 17 1005 -11.0225 155.575 1 11 2 292
1969098S11156 1969 24 SP EA NOT_NAMED 1969-04-09 05:00:00 TS -11.0070 155.523 1004 bom main 355 355 P_____O__PP___ SH331969 -11.0167 155.536 10 -1 -11.0000 155.500 1004 -11.0167 155.536 TC 19 1004 -10.9850 155.507 1 10 2 290
1969098S11156 1969 24 SP EA NOT_NAMED 1969-04-09 06:00:00 TS -10.9946 155.488 main 355 355 O_____P__OP___ jtwc_sh SH331969 -11.0000 155.500 10 -1 -11.0054 155.467 1004 -11.0000 155.500 TC 20 1004 -10.9674 155.473 1 9 2 293
1969098S11156 1969 24 SP EA NOT_NAMED 1969-04-09 08:00:00 TS -10.9660 155.421 1005 bom main 361 361 P_____O__PP___ SH331969 -10.9667 155.433 8 -1 -11.0000 155.400 1005 -10.9612 155.433 TC 18 1004 -10.9356 155.404 1 7 2 297
1969098S11156 1969 24 SP EA NOT_NAMED 1969-04-09 09:00:00 TS -10.9467 155.386 main 351 351 P_____P__PP___ SH331969 -10.9500 155.400 7 -1 -10.9691 155.361 1005 -10.9425 155.400 TC 17 1005 -10.9219 155.369 1 6 2 301
1969098S11156 1969 24 SP EA NOT_NAMED 1969-04-09 11:00:00 TS -10.9089 155.320 1006 bom main 358 358 P_____O__PO___ SH331969 -10.9167 155.333 5 -1 -10.9000 155.300 1006 -10.9110 155.333 TC 15 1005 -10.9000 155.300 1 5 2 299
1969098S11156 1969 24 SP EA NOT_NAMED 1969-04-09 12:00:00 TS -10.8963 155.293 main 358 358 O_____P__OP___ jtwc_sh SH331969 -10.9000 155.300 5 -1 -10.8921 155.298 1005 -10.9000 155.300 TC 15 1006 -10.8896 155.267 1 6 2 292
1969098S11156 1969 24 SP EA NOT_NAMED 1969-04-09 14:00:00 TS -10.8754 155.240 1005 bom main 364 364 P_____O__PP___ SH331969 -10.8558 155.233 8 -1 -10.9000 155.300 1005 -10.8921 155.233 TC 18 1004 -10.8734 155.200 1 10 2 290
1969098S11156 1969 24 SP EA NOT_NAMED 1969-04-09 15:00:00 TS -10.8661 155.209 main 364 364 P_____P__PP___ SH331969 -10.8350 155.200 10 -1 -10.9000 155.280 1004 -10.8925 155.200 TC 20 1004 -10.8679 155.167 1 11 2 283
1969098S11156 1969 24 SP EA NOT_NAMED 1969-04-09 17:00:00 TS -10.8541 155.140 1003 bom main 371 371 P_____O__PP___ SH331969 -10.8052 155.133 13 -1 -10.9000 155.200 1003 -10.8974 155.133 TC 23 1003 -10.8625 155.100 1 15 2 277
1969098S11156 1969 24 SP EA NOT_NAMED 1969-04-09 18:00:00 TS -10.8526 155.100 main 371 371 O_____P__OP___ jtwc_sh SH331969 -10.8000 155.100 15 -1 -10.9000 155.136 1003 -10.9000 155.100 TC 25 1003 -10.8629 155.067 1 16 2 268
1969098S11156 1969 24 SP EA NOT_NAMED 1969-04-09 20:00:00 TS -10.8578 155.020 1003 bom main 378 378 P_____O__PP___ SH331969 -10.8121 155.033 18 -1 -10.9000 155.000 1003 -10.8946 155.033 TC 23 1003 -10.8703 155.000 1 20 2 264
1969098S11156 1969 24 SP EA NOT_NAMED 1969-04-09 21:00:00 TS -10.8650 154.985 main 378 378 P_____P__PP___ SH331969 -10.8275 155.000 20 -1 -10.9000 154.959 1003 -10.8925 155.000 TC 22 1003 -10.8776 154.967 1 21 2 253
1969098S11156 1969 24 SP EA NOT_NAMED 1969-04-09 23:00:00 TS -10.8878 154.920 1004 bom main 385 385 P_____O__PO___ SH331969 -10.8724 154.933 23 -1 -10.9000 154.900 1004 -10.8943 154.933 TC 20 1003 -10.9000 154.900 1 25 2 249
1969098S11156 1969 24 SP EA NOT_NAMED 1969-04-10 00:00:00 TS -10.9019 154.886 main 385 385 O_____P__OP___ jtwc_sh SH331969 -10.9000 154.900 25 -1 -10.8946 154.867 1003 -10.9000 154.900 TC 20 1004 -10.9149 154.865 1 25 2 242
1969098S11156 1969 24 SP EA NOT_NAMED 1969-04-10 02:00:00 TS -10.9404 154.819 1003 bom main 392 392 P_____O__PP___ SH331969 -10.9642 154.833 26 -1 -10.9000 154.800 1003 -10.9200 154.833 TC 23 1002 -10.9534 154.796 1 26 2 237
1969098S11156 1969 24 SP EA NOT_NAMED 1969-04-10 03:00:00 TS -10.9673 154.786 main 400 400 P_____P__PP___ SH331969 -11.0000 154.800 27 -1 -10.9254 154.767 1002 -10.9350 154.800 TC 25 1002 -10.9763 154.761 1 26 3 228
1969098S11156 1969 24 SP EA NOT_NAMED 1969-04-10 05:00:00 TS -11.0284 154.719 1001 bom main 408 408 P_____O__PP___ SH331969 -11.0698 154.733 29 -1 -11.0000 154.700 1001 -10.9750 154.733 TC 28 1001 -11.0275 154.693 1 27 3 226
1969098S11156 1969 24 SP EA NOT_NAMED 1969-04-10 06:00:00 TS -11.0577 154.685 main 416 416 O_____P__OP___ jtwc_sh SH331969 -11.1000 154.700 30 -1 -11.0333 154.667 1001 -11.0000 154.700 TC 30 1001 -11.0552 154.659 1 27 3 229
1969098S11156 1969 24 SP EA NOT_NAMED 1969-04-10 08:00:00 TS -11.1097 154.619 1001 bom main 423 423 P_____O__PP___ SH331969 -11.1358 154.633 30 -1 -11.1000 154.600 1001 -11.0642 154.633 TC 30 1001 -11.1128 154.593 1 28 3 231
1969098S11156 1969 24 SP EA NOT_NAMED 1969-04-10 09:00:00 TS -11.1362 154.586 main 423 420 P_____P__PP___ SH331969 -11.1500 154.600 30 -1 -11.1388 154.567 1001 -11.1000 154.600 TC 30 1001 -11.1421 154.561 1 29 2 232
1969098S11156 1969 24 SP EA NOT_NAMED 1969-04-10 11:00:00 TS -11.1860 154.520 1001 bom main 420 420 P_____O__PO___ SH331969 -11.1802 154.533 30 -1 -11.2000 154.500 1001 -11.1698 154.533 TC 30 1001 -11.2000 154.500 1 30 2 234
1969098S11156 1969 24 SP EA NOT_NAMED 1969-04-10 12:00:00 TS -11.2055 154.488 main 420 409 O_____P__OP___ jtwc_sh SH331969 -11.2000 154.500 30 -1 -11.2025 154.467 1001 -11.2000 154.500 TC 30 1001 -11.2250 154.472 1 28 2 236
1969098S11156 1969 24 SP EA NOT_NAMED 1969-04-10 14:00:00 TS -11.2478 154.420 1001 bom main 409 409 P_____O__PP___ SH331969 -11.2642 154.428 26 -1 -11.2000 154.400 1001 -11.2358 154.428 TC 30 1001 -11.2750 154.418 1 26 2 234
1969098S11156 1969 24 SP EA NOT_NAMED 1969-04-10 15:00:00 TS -11.2750 154.387 main 411 401 P_____P__PP___ SH331969 -11.3000 154.393 25 -1 -11.2250 154.365 1001 -11.2500 154.392 TC 30 1001 -11.3000 154.392 1 25 3 229
1969098S11156 1969 24 SP EA NOT_NAMED 1969-04-10 17:00:00 TS -11.3339 154.325 1001 bom main 401 401 P_____O__PP___ SH331969 -11.3698 154.328 21 -1 -11.3000 154.300 1001 -11.2802 154.328 TC 30 1001 -11.3500 154.342 1 22 2 226
1969098S11156 1969 24 SP EA NOT_NAMED 1969-04-10 18:00:00 TS -11.3617 154.299 main 403 392 O_____P__OP___ jtwc_sh SH331969 -11.4000 154.300 20 -1 -11.3333 154.279 1001 -11.3000 154.300 TC 30 1001 -11.3750 154.318 1 21 2 220
1969098S11156 1969 24 SP EA NOT_NAMED 1969-04-10 21:00:00 TS -11.4352 154.247 main 392 392 P_____P__PP___ SH331969 -11.4500 154.250 17 -1 -11.4333 154.237 1001 -11.3925 154.250 TC 30 1001 -11.4500 154.247 1 17 2 216
1969098S11156 1969 24 SP EA NOT_NAMED 1969-04-10 23:00:00 TS -11.4849 154.212 1001 bom main 395 395 P_____O__PO___ SH331969 -11.4802 154.220 15 -1 -11.5000 154.200 1001 -11.4640 154.220 TC 30 1001 -11.5000 154.200 1 15 2 218
1969098S11156 1969 24 SP EA NOT_NAMED 1969-04-11 00:00:00 TS -11.5114 154.189 main 395 387 O_____P__OP___ jtwc_sh SH331969 -11.5000 154.200 15 -1 -11.5333 154.169 1001 -11.5000 154.200 TC 30 1001 -11.5238 154.175 1 15 2 221
1969098S11156 1969 24 SP EA NOT_NAMED 1969-04-11 02:00:00 TS -11.5743 154.126 1001 bom main 387 387 P_____O__PP___ SH331969 -11.5642 154.136 16 -1 -11.6000 154.100 1001 -11.5721 154.136 TC 30 1000 -11.5709 154.125 1 17 3 226
1969098S11156 1969 24 SP EA NOT_NAMED 1969-04-11 03:00:00 TS -11.6071 154.092 main 387 380 P_____P__PP___ SH331969 -11.6000 154.100 17 -1 -11.6333 154.061 1000 -11.6075 154.100 TC 30 1000 -11.5946 154.100 1 18 3 225
1969098S11156 1969 24 SP EA NOT_NAMED 1969-04-11 05:00:00 TS -11.6709 154.028 1000 bom main 380 380 P_____O__PP___ SH331969 -11.6698 154.030 19 -1 -11.7000 154.000 1000 -11.6724 154.030 TC 30 1000 -11.6425 154.050 1 20 3 224
1969098S11156 1969 24 SP EA NOT_NAMED 1969-04-11 06:00:00 TS -11.7012 154.004 main 380 380 O_____P__OP___ jtwc_sh SH331969 -11.7000 154.000 20 -1 -11.7388 153.998 1000 -11.7000 154.000 TC 30 1000 -11.6670 154.025 1 20 2 220
1969098S11156 1969 24 SP EA NOT_NAMED 1969-04-11 08:00:00 TS -11.7450 153.973 1000 bom main 380 380 P_____O__PP___ SH331969 -11.7358 153.964 21 -1 -11.8000 154.000 1000 -11.7358 153.964 TC 30 1000 -11.7178 153.975 1 22 2 223
1969098S11156 1969 24 SP EA NOT_NAMED 1969-04-11 09:00:00 TS -11.7593 153.955 main 384 374 P_____P__PP___ SH331969 -11.7500 153.950 22 -1 -11.8025 153.975 1000 -11.7500 153.950 TC 30 1000 -11.7443 153.950 1 23 1 231
1969098S11156 1969 24 SP EA NOT_NAMED 1969-04-11 11:00:00 TS -11.7881 153.912 1000 bom main 374 374 P_____O__PO___ SH331969 -11.7802 153.920 24 -1 -11.8000 153.900 1000 -11.7802 153.920 TC 30 1000 -11.8000 153.900 1 25 2 234
1969098S11156 1969 24 SP EA NOT_NAMED 1969-04-11 12:00:00 TS -11.8108 153.889 main 374 368 O_____P__OP___ jtwc_sh SH331969 -11.8000 153.900 25 -1 -11.8254 153.867 1000 -11.8000 153.900 TC 30 1000 -11.8287 153.877 1 24 2 224
1969098S11156 1969 24 SP EA NOT_NAMED 1969-04-11 14:00:00 TS -11.8730 153.828 1000 bom main 368 368 P_____O__PP___ SH331969 -11.8588 153.836 23 -1 -11.9000 153.800 1000 -11.8588 153.836 TC 30 1000 -11.8887 153.833 1 23 3 223
1969098S11156 1969 24 SP EA NOT_NAMED 1969-04-11 15:00:00 TS -11.9062 153.796 main 368 362 P_____P__PP___ SH331969 -11.8925 153.800 22 -1 -11.9333 153.767 1000 -11.8925 153.800 TC 30 1000 -11.9200 153.811 1 23 3 224
1969098S11156 1969 24 SP EA NOT_NAMED 1969-04-11 17:00:00 TS -11.9754 153.731 1000 bom main 362 362 P_____O__PP___ SH331969 -11.9640 153.730 20 -1 -12.0000 153.700 1000 -11.9640 153.730 TC 30 1000 -11.9850 153.765 1 22 3 223
1969098S11156 1969 24 SP EA NOT_NAMED 1969-04-11 18:00:00 TS -12.0104 153.700 main 362 362 O_____P__OP___ jtwc_sh SH331969 -12.0000 153.700 20 -1 -12.0333 153.661 999 -12.0000 153.700 TC 30 1000 -12.0187 153.741 1 22 2 213
1969098S11156 1969 24 SP EA NOT_NAMED 1969-04-11 20:00:00 TS -12.0745 153.660 999 bom main 367 358 P_____O__PP___ SH331969 -12.0612 153.670 20 -1 -12.1000 153.600 999 -12.0612 153.670 TC 31 999 -12.0887 153.689 1 21 2 210
1969098S11156 1969 24 SP EA NOT_NAMED 1969-04-11 21:00:00 TS -12.1071 153.646 main 358 358 P_____P__PP___ SH331969 -12.0925 153.657 20 -1 -12.1333 153.598 998 -12.0925 153.657 TC 32 999 -12.1250 153.661 1 20 2 204
1969098S11156 1969 24 SP EA NOT_NAMED 1969-04-11 23:00:00 TS -12.1766 153.615 998 bom main 363 363 P_____O__PO___ SH331969 -12.1609 153.625 20 -1 -12.2000 153.600 998 -12.1609 153.625 TC 34 998 -12.2000 153.600 1 20 2 206
1969098S11156 1969 24 SP EA NOT_NAMED 1969-04-12 00:00:00 TS -12.2138 153.589 main 363 359 O_____P__OP___ jtwc_sh SH331969 -12.2000 153.600 20 -1 -12.2333 153.575 998 -12.2000 153.600 TC 35 998 -12.2358 153.569 1 20 3 221
1969098S11156 1969 24 SP EA NOT_NAMED 1969-04-12 02:00:00 TS -12.2994 153.510 998 bom main 359 359 P_____O__PP___ SH331969 -12.2975 153.516 21 -1 -12.3000 153.500 998 -12.2921 153.516 TC 35 998 -12.3097 153.501 1 21 4 223
1969098S11156 1969 24 SP EA NOT_NAMED 1969-04-12 03:00:00 TS -12.3437 153.467 main 359 356 P_____P__PP___ SH331969 -12.3500 153.465 22 -1 -12.3279 153.472 998 -12.3425 153.465 TC 35 998 -12.3479 153.465 1 21 4 225
1969098S11156 1969 24 SP EA NOT_NAMED 1969-04-12 05:00:00 TS -12.4362 153.371 998 bom main 356 354 P_____O__PP___ SH331969 -12.4531 153.355 24 -1 -12.4000 153.400 998 -12.4474 153.355 TC 35 998 -12.4274 153.387 1 22 4 226
1969098S11156 1969 24 SP EA NOT_NAMED 1969-04-12 06:00:00 TS -12.4867 153.316 main 354 345 O_____P__OP___ jtwc_sh SH331969 -12.5000 153.300 25 -1 -12.4642 153.336 998 -12.5000 153.300 TC 35 998 -12.4691 153.345 1 22 4 228
1969098S11156 1969 24 SP EA NOT_NAMED 1969-04-12 08:00:00 TS -12.5768 153.214 998 bom main 352 352 P_____O__PP___ SH331969 -12.5637 153.205 25 -1 -12.6000 153.200 998 -12.6000 153.205 TC 33 998 -12.5565 153.255 1 23 4 228
1969098S11156 1969 24 SP EA NOT_NAMED 1969-04-12 09:00:00 TS -12.6147 153.170 main 352 344 P_____P__PP___ SH331969 -12.5925 153.157 25 -1 -12.6358 153.170 998 -12.6500 153.157 TC 32 998 -12.6026 153.206 1 24 4 230
1969098S11156 1969 24 SP EA NOT_NAMED 1969-04-12 11:00:00 TS -12.6931 153.073 999 bom main 351 343 P_____O__PO___ SH331969 -12.6579 153.056 25 -1 -12.7000 153.100 999 -12.7500 153.056 TC 30 998 -12.7000 153.100 1 25 4 231
1969098S11156 1969 24 SP EA NOT_NAMED 1969-04-12 12:00:00 TS -12.7427 153.008 main 343 343 O_____P__OP___ jtwc_sh SH331969 -12.7000 153.000 25 -1 -12.7642 153.005 999 -12.8000 153.000 TC 30 999 -12.7492 153.035 1 25 5 232
1969098S11156 1969 24 SP EA NOT_NAMED 1969-04-12 14:00:00 TS -12.8565 152.860 999 bom main 351 344 P_____O__PP___ SH331969 -12.8175 152.869 25 -1 -12.9000 152.800 999 -12.8946 152.869 TC 31 998 -12.8526 152.893 1 25 5 231
1969098S11156 1969 24 SP EA NOT_NAMED 1969-04-12 15:00:00 TS -12.9110 152.795 main 344 344 P_____P__PP___ SH331969 -12.8850 152.800 25 -1 -12.9358 152.756 998 -12.9425 152.800 TC 32 998 -12.9068 152.819 1 25 5 227
1969098S11156 1969 24 SP EA NOT_NAMED 1969-04-12 17:00:00 TS -13.0241 152.672 998 bom main 345 345 P_____O__PP___ SH331969 -13.0281 152.664 25 -1 -13.0000 152.700 998 -13.0443 152.664 TC 34 998 -13.0202 152.670 1 25 5 226
1969098S11156 1969 24 SP EA NOT_NAMED 1969-04-12 18:00:00 TS -13.0876 152.608 main 348 348 O_____P__OP___ jtwc_sh SH331969 -13.1000 152.600 25 -1 -13.0588 152.641 997 -13.1000 152.600 TC 35 998 -13.0794 152.598 1 25 5 224
1969098S11156 1969 24 SP EA NOT_NAMED 1969-04-12 20:00:00 TS -13.2179 152.481 997 bom main 350 350 P_____O__PP___ SH331969 -13.2333 152.481 25 -1 -13.2000 152.500 997 -13.2200 152.481 TC 35 997 -13.2026 152.462 1 25 5 223
1969098S11156 1969 24 SP EA NOT_NAMED 1969-04-12 21:00:00 TS -13.2837 152.421 main 354 354 P_____P__PP___ SH331969 -13.3000 152.428 25 -1 -13.2667 152.422 996 -13.2850 152.428 TC 35 997 -13.2668 152.401 1 25 5 218
1969098S11156 1969 24 SP EA NOT_NAMED 1969-04-12 23:00:00 TS -13.4183 152.322 996 bom main 358 358 P_____O__PO___ SH331969 -13.4333 152.336 25 -1 -13.4000 152.300 996 -13.4250 152.336 TC 35 996 -13.4000 152.300 1 25 5 212
1969098S11156 1969 24 SP EA NOT_NAMED 1969-04-13 00:00:00 TS -13.4859 152.291 main 368 368 O_____P__OP___ jtwc_sh SH331969 -13.5000 152.300 25 -1 -13.4612 152.290 996 -13.5000 152.300 TC 35 996 -13.4683 152.266 1 25 4 199
1969098S11156 1969 24 SP EA NOT_NAMED 1969-04-13 02:00:00 TS -13.6261 152.251 996 bom main 378 373 P_____O__PP___ SH331969 -13.6279 152.245 25 -1 -13.6000 152.300 996 -13.6642 152.245 TC 35 996 -13.6105 152.216 1 25 5 194
1969098S11156 1969 24 SP EA NOT_NAMED 1969-04-13 03:00:00 TS -13.7033 152.230 main 383 383 P_____P__PP___ SH331969 -13.6925 152.227 25 -1 -13.6975 152.269 996 -13.7500 152.227 TC 35 996 -13.6841 152.200 1 25 5 195
1969098S11156 1969 24 SP EA NOT_NAMED 1969-04-13 05:00:00 TS -13.8620 152.200 996 bom main 403 403 P_____O__PP___ SH331969 -13.8276 152.206 25 -1 -13.9000 152.200 996 -13.9197 152.206 TC 35 996 -13.8349 152.182 1 25 5 190
1969098S11156 1969 24 SP EA NOT_NAMED 1969-04-13 06:00:00 TS -13.9372 152.194 main 403 403 O_____P__OP___ jtwc_sh SH331969 -13.9000 152.200 25 -1 -13.9746 152.192 996 -14.0000 152.200 TC 35 996 -13.9117 152.179 1 25 5 0
1969098S11156 1969 24 SP EA NOT_NAMED 1969-04-13 08:00:00 TS -14.0873 152.188 997 bom main 424 424 P_____O__PP___ SH331969 -14.0642 152.187 25 -1 -14.1000 152.200 997 -14.1412 152.187 TC 35 996 -14.0668 152.182 1 25 5 185
1969098S11156 1969 24 SP EA NOT_NAMED 1969-04-13 09:00:00 TS -14.1638 152.187 main 434 434 P_____P__PP___ SH331969 -14.1500 152.185 25 -1 -14.1667 152.195 997 -14.2075 152.185 TC 35 997 -14.1447 152.187 1 25 5 0
1969098S11156 1969 24 SP EA NOT_NAMED 1969-04-13 11:00:00 TS -14.3151 152.195 998 bom main 445 445 P_____O__PO___ SH331969 -14.3198 152.192 25 -1 -14.3000 152.200 998 -14.3360 152.192 TC 35 997 -14.3000 152.200 1 25 5 0
1969098S11156 1969 24 SP EA NOT_NAMED 1969-04-13 12:00:00 TS -14.3881 152.206 main 455 455 O_____P__OP___ jtwc_sh SH331969 -14.4000 152.200 25 -1 -14.3667 152.231 998 -14.4000 152.200 TC 35 998 -14.3738 152.200 1 25 4 169
1969098S11156 1969 24 SP EA NOT_NAMED 1969-04-13 14:00:00 TS -14.5241 152.240 998 bom main 466 466 P_____O__PP___ SH331969 -14.5358 152.231 25 -1 -14.5000 152.300 998 -14.5279 152.231 TC 35 998 -14.5209 152.207 1 25 4 169
1969098S11156 1969 24 SP EA NOT_NAMED 1969-04-13 15:00:00 TS -14.5897 152.254 main 480 480 P_____P__PP___ SH331969 -14.6000 152.250 25 -1 -14.5612 152.308 998 -14.5925 152.250 TC 35 998 -14.5946 152.212 1 25 4 169
1969098S11156 1969 24 SP EA NOT_NAMED 1969-04-13 17:00:00 TS -14.7261 152.277 998 bom main 490 490 P_____O__PP___ SH331969 -14.7302 152.286 25 -1 -14.7000 152.300 998 -14.7276 152.286 TC 35 998 -14.7425 152.227 1 25 4 170
1969098S11156 1969 24 SP EA NOT_NAMED 1969-04-13 18:00:00 TS -14.8029 152.287 main 501 501 O_____P__OP___ jtwc_sh SH331969 -14.8000 152.300 25 -1 -14.7975 152.300 998 -14.8000 152.300 TC 35 998 -14.8170 152.237 1 25 5 0
1969098S11156 1969 24 SP EA NOT_NAMED 1969-04-13 20:00:00 TS -14.9677 152.293 998 bom main 522 522 P_____O__PP___ SH331969 -14.9588 152.303 25 -1 -15.0000 152.300 998 -14.9533 152.303 TC 35 998 -14.9678 152.260 1 25 5 178
1969098S11156 1969 24 SP EA NOT_NAMED 1969-04-13 21:00:00 TS -15.0467 152.293 main 522 522 P_____P__PP___ SH331969 -15.0425 152.300 25 -1 -15.0691 152.295 998 -15.0350 152.300 TC 35 998 -15.0443 152.272 1 25 5 174
1969098S11156 1969 24 SP EA NOT_NAMED 1969-04-13 23:00:00 TS -15.2073 152.298 998 bom main 543 543 P_____O__PO___ SH331969 -15.2140 152.297 25 -1 -15.2000 152.300 998 -15.2083 152.297 TC 35 998 -15.2000 152.300 1 25 5 0
1969098S11156 1969 24 SP EA NOT_NAMED 1969-04-14 00:00:00 TS -15.2939 152.308 main 554 554 O_____P__OP___ jtwc_sh SH331969 -15.3000 152.300 25 -1 -15.2921 152.331 998 -15.3000 152.300 TC 35 998 -15.2775 152.307 1 25 5 170
1969098S11156 1969 24 SP EA NOT_NAMED 1969-04-14 02:00:00 TS -15.4742 152.340 999 bom main 575 575 P_____O__PP___ SH331969 -15.4667 152.325 26 -1 -15.5000 152.400 999 -15.5030 152.325 TC 33 998 -15.4346 152.323 1 26 6 172
1969098S11156 1969 24 SP EA NOT_NAMED 1969-04-14 03:00:00 TS -15.5655 152.353 main 589 589 P_____P__PP___ SH331969 -15.5500 152.342 27 -1 -15.6054 152.408 999 -15.6075 152.342 TC 32 998 -15.5145 152.332 1 26 5 174
1969098S11156 1969 24 SP EA NOT_NAMED 1969-04-14 05:00:00 TS -15.7439 152.379 999 bom main 599 599 P_____O__PP___ SH331969 -15.7167 152.381 29 -1 -15.8000 152.400 999 -15.8088 152.381 TC 30 998 -15.6774 152.355 1 27 5 170
1969098S11156 1969 24 SP EA NOT_NAMED 1969-04-14 06:00:00 TS -15.8271 152.393 main 610 610 O_____P__OP___ jtwc_sh SH331969 -15.8000 152.400 30 -1 -15.8746 152.395 999 -15.9000 152.400 TC 30 999 -15.7607 152.371 1 27 5 173
1969098S11156 1969 24 SP EA NOT_NAMED 1969-04-14 08:00:00 TS -15.9828 152.417 999 bom main 613 613 P_____O__PP___ SH331969 -15.9667 152.423 30 -1 -16.0000 152.400 999 -16.0491 152.428 TC 30 999 -15.9315 152.410 1 28 5 169
1969098S11156 1969 24 SP EA NOT_NAMED 1969-04-14 09:00:00 TS -16.0602 152.435 main 604 602 P_____P__PP___ SH331969 -16.0500 152.435 30 -1 -16.0667 152.425 999 -16.1150 152.443 TC 30 999 -16.0192 152.436 1 29 5 164
1969098S11156 1969 24 SP EA NOT_NAMED 1969-04-14 11:00:00 TS -16.2144 152.484 1000 bom main 602 593 P_____O__PO___ SH331969 -16.2167 152.472 30 -1 -16.2000 152.500 1000 -16.2386 152.478 TC 30 999 -16.2000 152.500 1 30 5 164
1969098S11156 1969 24 SP EA NOT_NAMED 1969-04-14 12:00:00 TS -16.2882 152.509 main 593 585 O_____P__OP___ jtwc_sh SH331969 -16.3000 152.500 30 -1 -16.2667 152.539 1000 -16.3000 152.500 TC 30 1000 -16.2744 152.508 1 29 5 163
1969098S11156 1969 24 SP EA NOT_NAMED 1969-04-14 14:00:00 TS -16.4282 152.561 1000 bom main 592 584 P_____O__PP___ SH331969 -16.4558 152.573 28 -1 -16.4000 152.600 1000 -16.4061 152.532 TC 30 1000 -16.4234 152.528 1 27 4 162
1969098S11156 1969 24 SP EA NOT_NAMED 1969-04-14 15:00:00 TS -16.4978 152.587 main 584 576 P_____P__PP___ SH331969 -16.5350 152.620 27 -1 -16.4558 152.592 1000 -16.4624 152.555 TC 30 1000 -16.5010 152.545 1 26 5 158
1969098S11156 1969 24 SP EA NOT_NAMED 1969-04-14 17:00:00 TS -16.6571 152.662 1000 bom main 575 575 P_____O__PP___ SH331969 -16.7052 152.733 25 -1 -16.6000 152.600 1000 -16.6047 152.636 TC 30 1000 -16.6701 152.607 1 25 6 152
1969098S11156 1969 24 SP EA NOT_NAMED 1969-04-14 18:00:00 TS -16.7565 152.727 main 567 560 O_____P__OP___ jtwc_sh SH331969 -16.8000 152.800 25 -1 -16.7176 152.676 1000 -16.7000 152.700 TC 30 1000 -16.7648 152.657 1 24 7 149
1969098S11156 1969 24 SP EA NOT_NAMED 1969-04-14 20:00:00 TS -16.9767 152.862 1000 bom main 568 560 P_____O__PP___ SH331969 -16.9790 152.876 23 -1 -17.0000 152.900 1000 -16.9439 152.851 TC 30 1000 -16.9819 152.808 1 22 8 149
1969098S11156 1969 24 SP EA NOT_NAMED 1969-04-14 21:00:00 TS -17.0966 152.942 main 560 560 P_____P__PP___ SH331969 -17.0818 152.931 22 -1 -17.1224 152.978 1000 -17.0897 152.953 TC 30 1000 -17.1074 152.914 1 21 10 143
1969098S11156 1969 24 SP EA NOT_NAMED 1969-04-14 23:00:00 TS -17.3789 153.178 1001 bom main 565 565 P_____O__PO___ SH331969 -17.3376 153.132 20 -1 -17.4000 153.200 1001 -17.4195 153.225 TC 30 1000 -17.4000 153.200 1 20 12 139
1969098S11156 1969 24 SP EA NOT_NAMED 1969-04-15 00:00:00 TS -17.5549 153.365 main 570 570 O_____P__OP___ jtwc_sh SH331969 -17.5000 153.300 20 -1 -17.5897 153.402 1001 -17.6000 153.400 TC 30 1001 -17.5847 153.423 1 20 18 131
1969098S11156 1969 24 SP EA NOT_NAMED 1969-04-15 02:00:00 TS -17.9579 153.868 1001 bom main 594 591 P_____O__PP___ SH331969 -17.9122 153.833 20 -1 -18.0000 153.900 1001 -17.9654 153.815 TC 30 1001 -17.9998 153.957 1 20 19 129
1969098S11156 1969 24 SP EA NOT_NAMED 1969-04-15 03:00:00 TS -18.1684 154.151 main 594 590 P_____P__PP___ SH331969 -18.1484 154.159 20 -1 -18.1581 154.117 1001 -18.1624 154.060 TC 30 1001 -18.2248 154.258 1 20 22 128
1969098S11156 1969 24 SP EA NOT_NAMED 1969-04-15 05:00:00 TS -18.6149 154.764 1001 bom main 602 594 P_____O__PP___ SH331969 -18.6487 154.858 20 -1 -18.5000 154.600 1001 -18.5806 154.607 TC 30 1001 -18.6964 154.897 1 20 23 128
1969098S11156 1969 24 SP EA NOT_NAMED 1969-04-15 06:00:00 TS -18.8561 155.086 main 601 601 O_____P__OP___ jtwc_sh SH331969 -18.9000 155.200 20 -1 -18.7429 154.904 1001 -18.8000 154.900 TC 30 1001 -18.9378 155.224 1 20 24 129
1969098S11156 1969 24 SP EA NOT_NAMED 1969-04-15 08:00:00 TS -19.3539 155.737 1001 bom main 615 615 P_____O__PP___ SH331969 -19.3884 155.831 20 -1 -19.3000 155.600 1001 -19.2734 155.560 TC 28 1001 -19.4190 155.864 1 20 24 129
1969098S11156 1969 24 SP EA NOT_NAMED 1969-04-15 09:00:00 TS -19.6037 156.065 main 638 629 P_____P__PP___ SH331969 -19.6301 156.132 20 -1 -19.5886 155.996 1001 -19.5160 155.901 TC 27 1001 -19.6539 156.165 1 20 23 130
1969098S11156 1969 24 SP EA NOT_NAMED 1969-04-15 11:00:00 TS -20.0728 156.656 1002 bom main 630 627 P_____O__PO___ SH331969 -20.0896 156.673 20 -1 -20.1000 156.700 1002 -19.9848 156.535 TC 25 1001 -20.1000 156.700 1 20 20 131
1969098S11156 1969 24 SP EA NOT_NAMED 1969-04-15 12:00:00 TS -20.2733 156.882 main 624 616 O_____P__OP___ jtwc_sh SH331969 -20.3000 156.900 20 -1 -20.2592 156.889 1002 -20.2000 156.800 TC 25 1002 -20.3071 156.923 1 20 15 136
1969098S11156 1969 24 SP EA NOT_NAMED 1969-04-15 14:00:00 TS -20.6225 157.214 1002 bom main 616 606 P_____O__PP___ SH331969 -20.6726 157.251 20 -1 -20.5000 157.100 1002 -20.5771 157.186 TC 25 1002 -20.6901 157.283 1 21 14 140
1969098S11156 1969 24 SP EA NOT_NAMED 1969-04-15 15:00:00 TS -20.7870 157.349 main 606 596 P_____P__PP___ SH331969 -20.8397 157.385 20 -1 -20.6588 157.239 1002 -20.7442 157.321 TC 25 1002 -20.8682 157.425 1 21 12 145
1969098S11156 1969 24 SP EA NOT_NAMED 1969-04-15 17:00:00 TS -21.1083 157.574 1002 bom main 603 596 P_____O__PP___ SH331969 -21.1505 157.603 20 -1 -21.0000 157.500 1002 -21.0524 157.519 TC 25 1002 -21.2024 157.645 1 22 11 148
1969098S11156 1969 24 SP EA NOT_NAMED 1969-04-15 18:00:00 TS -21.2625 157.670 main 596 582 O_____P__OP___ jtwc_sh SH331969 -21.3000 157.700 20 -1 -21.1612 157.613 1002 -21.2000 157.600 TC 25 1002 -21.3606 157.730 1 22 11 153
1969098S11156 1969 24 SP EA NOT_NAMED 1969-04-15 20:00:00 NR -21.5819 157.830 1002 bom main 582 582 ______O___P___ SH331969 -1 -21.5000 157.800 1002 TC -21.6638 157.860 1 23 11 157
1969098S11156 1969 24 SP EA NOT_NAMED 1969-04-15 21:00:00 NR -21.7504 157.893 main 576 566 ______P___P___ SH331969 -1 -21.6901 157.874 1002 TC -21.8107 157.911 1 24 11 163
1969098S11156 1969 24 SP EA NOT_NAMED 1969-04-15 23:00:00 NR -22.1000 158.000 1003 bom main 566 ______O___O___ SH331969 -1 -22.1000 158.000 1003 TC -22.1000 158.000 1 25 11 165

Digital Typhoon Data and Search

About IBTrACS Database

This database is a web-friendly format of International Best Track Archive for Climate Stewardship (IBTrACS), a global best track data archive curated by NOAA dating back to 1842.

Updated: 2021-12-03